Brookfield, Canada
Current Conditions -  °F | °C
As of 7:00 PM on Saturday 20 Dec 2014 (Local Time) from CYHZ Reporting Station
Snow Showers Snow Showers  
Wind Chill: 21°   Ceiling: 2000
Heat Index: 30°   Visibility: 15mi
Dew Point: 27°   Wind: 10mph
Humidity: 86%   Direction: 10°N
Pressure: 30.26"   Gusts: NA
Location:  45.25°N, 63.28°W
Report Text: CYHZ 202300Z 01009KT 15SM -SHSN OVC020 M01/M03 A3026 RMK SC8 SLP255
Loading
Personal Weather Stations






























Interactive Weather Map New forecast layout! Learn more

10-Day Weather Forecast

Advertisements
Track Severe Weather on mobile